sensor_id;sensor_type;location;lat;lon;timestamp;temperature;humidity
18729;DHT22;9493;51.884;5.188;2022-07-10T00:01:00;14.00;99.90
18729;DHT22;9493;51.884;5.188;2022-07-10T00:03:28;13.90;99.90
18729;DHT22;9493;51.884;5.188;2022-07-10T00:05:55;13.80;99.90
18729;DHT22;9493;51.884;5.188;2022-07-10T00:08:22;13.90;99.90
18729;DHT22;9493;51.884;5.188;2022-07-10T00:10:49;13.90;99.90
18729;DHT22;9493;51.884;5.188;2022-07-10T00:13:16;14.00;99.90
18729;DHT22;9493;51.884;5.188;2022-07-10T00:15:42;13.90;99.90
18729;DHT22;9493;51.884;5.188;2022-07-10T00:18:09;13.90;99.90
18729;DHT22;9493;51.884;5.188;2022-07-10T00:20:37;13.90;99.90
18729;DHT22;9493;51.884;5.188;2022-07-10T00:23:05;13.90;99.90
18729;DHT22;9493;51.884;5.188;2022-07-10T00:25:32;13.70;99.90
18729;DHT22;9493;51.884;5.188;2022-07-10T00:27:59;13.70;99.90
18729;DHT22;9493;51.884;5.188;2022-07-10T00:30:26;13.70;99.90
18729;DHT22;9493;51.884;5.188;2022-07-10T00:32:52;13.70;99.90
18729;DHT22;9493;51.884;5.188;2022-07-10T00:35:20;13.60;99.90
18729;DHT22;9493;51.884;5.188;2022-07-10T00:37:48;13.60;99.90
18729;DHT22;9493;51.884;5.188;2022-07-10T00:40:15;13.60;99.90
18729;DHT22;9493;51.884;5.188;2022-07-10T00:42:42;13.60;99.90
18729;DHT22;9493;51.884;5.188;2022-07-10T00:45:10;13.60;99.90
18729;DHT22;9493;51.884;5.188;2022-07-10T00:47:37;13.60;99.90
18729;DHT22;9493;51.884;5.188;2022-07-10T00:50:04;13.60;99.90
18729;DHT22;9493;51.884;5.188;2022-07-10T00:52:32;13.70;99.90
18729;DHT22;9493;51.884;5.188;2022-07-10T00:55:02;13.70;99.90
18729;DHT22;9493;51.884;5.188;2022-07-10T00:57:29;13.70;99.90
18729;DHT22;9493;51.884;5.188;2022-07-10T00:59:56;13.70;99.90
18729;DHT22;9493;51.884;5.188;2022-07-10T01:02:24;13.70;99.90
18729;DHT22;9493;51.884;5.188;2022-07-10T01:04:51;13.70;99.90
18729;DHT22;9493;51.884;5.188;2022-07-10T01:07:18;13.60;99.90
18729;DHT22;9493;51.884;5.188;2022-07-10T01:09:45;13.60;99.90
18729;DHT22;9493;51.884;5.188;2022-07-10T01:12:14;13.60;99.90
18729;DHT22;9493;51.884;5.188;2022-07-10T01:14:42;13.60;99.90
18729;DHT22;9493;51.884;5.188;2022-07-10T01:17:10;13.60;99.90
18729;DHT22;9493;51.884;5.188;2022-07-10T01:19:37;13.60;99.90
18729;DHT22;9493;51.884;5.188;2022-07-10T01:22:06;13.50;99.90
18729;DHT22;9493;51.884;5.188;2022-07-10T01:24:32;13.60;99.90
18729;DHT22;9493;51.884;5.188;2022-07-10T01:27:00;13.50;99.90
18729;DHT22;9493;51.884;5.188;2022-07-10T01:29:27;13.50;99.90
18729;DHT22;9493;51.884;5.188;2022-07-10T01:31:55;13.50;99.90
18729;DHT22;9493;51.884;5.188;2022-07-10T01:34:22;13.50;99.90
18729;DHT22;9493;51.884;5.188;2022-07-10T01:36:49;13.40;99.90
18729;DHT22;9493;51.884;5.188;2022-07-10T01:39:17;13.50;99.90
18729;DHT22;9493;51.884;5.188;2022-07-10T01:41:44;13.40;99.90
18729;DHT22;9493;51.884;5.188;2022-07-10T01:44:11;13.40;99.90
18729;DHT22;9493;51.884;5.188;2022-07-10T01:46:43;13.40;99.90
18729;DHT22;9493;51.884;5.188;2022-07-10T01:49:10;13.30;99.90
18729;DHT22;9493;51.884;5.188;2022-07-10T01:51:37;13.30;99.90
18729;DHT22;9493;51.884;5.188;2022-07-10T01:54:04;13.20;99.90
18729;DHT22;9493;51.884;5.188;2022-07-10T01:56:32;13.30;99.90
18729;DHT22;9493;51.884;5.188;2022-07-10T01:58:59;13.30;99.90
18729;DHT22;9493;51.884;5.188;2022-07-10T02:01:28;13.40;99.90
18729;DHT22;9493;51.884;5.188;2022-07-10T02:03:55;13.40;99.90
18729;DHT22;9493;51.884;5.188;2022-07-10T02:06:39;13.50;99.90
18729;DHT22;9493;51.884;5.188;2022-07-10T02:09:06;13.50;99.90
18729;DHT22;9493;51.884;5.188;2022-07-10T02:11:34;13.60;99.90
18729;DHT22;9493;51.884;5.188;2022-07-10T02:14:01;13.70;99.90
18729;DHT22;9493;51.884;5.188;2022-07-10T02:16:28;13.70;99.90
18729;DHT22;9493;51.884;5.188;2022-07-10T02:18:55;13.70;99.90
18729;DHT22;9493;51.884;5.188;2022-07-10T02:21:22;13.80;99.90
18729;DHT22;9493;51.884;5.188;2022-07-10T02:23:48;13.80;99.90
18729;DHT22;9493;51.884;5.188;2022-07-10T02:26:15;13.80;99.90
18729;DHT22;9493;51.884;5.188;2022-07-10T02:28:43;13.80;99.90
18729;DHT22;9493;51.884;5.188;2022-07-10T02:31:10;13.80;99.90
18729;DHT22;9493;51.884;5.188;2022-07-10T02:33:37;13.70;99.90
18729;DHT22;9493;51.884;5.188;2022-07-10T02:36:04;13.70;99.90
18729;DHT22;9493;51.884;5.188;2022-07-10T02:38:31;13.70;99.90
18729;DHT22;9493;51.884;5.188;2022-07-10T02:40:58;13.60;99.90
18729;DHT22;9493;51.884;5.188;2022-07-10T02:43:25;13.60;99.90
18729;DHT22;9493;51.884;5.188;2022-07-10T02:45:53;13.60;99.90
18729;DHT22;9493;51.884;5.188;2022-07-10T02:48:20;13.50;99.90
18729;DHT22;9493;51.884;5.188;2022-07-10T02:50:47;13.40;99.90
18729;DHT22;9493;51.884;5.188;2022-07-10T02:53:13;13.40;99.90
18729;DHT22;9493;51.884;5.188;2022-07-10T02:55:40;13.40;99.90
18729;DHT22;9493;51.884;5.188;2022-07-10T02:58:07;13.30;99.90
18729;DHT22;9493;51.884;5.188;2022-07-10T03:00:35;13.30;99.90
18729;DHT22;9493;51.884;5.188;2022-07-10T03:03:03;13.30;99.90
18729;DHT22;9493;51.884;5.188;2022-07-10T03:05:30;13.30;99.90
18729;DHT22;9493;51.884;5.188;2022-07-10T03:07:57;13.30;99.90
18729;DHT22;9493;51.884;5.188;2022-07-10T03:10:24;13.30;99.90
18729;DHT22;9493;51.884;5.188;2022-07-10T03:12:50;13.30;99.90
18729;DHT22;9493;51.884;5.188;2022-07-10T03:15:17;13.30;99.90
18729;DHT22;9493;51.884;5.188;2022-07-10T03:17:44;13.30;99.90
18729;DHT22;9493;51.884;5.188;2022-07-10T03:20:13;13.40;99.90
18729;DHT22;9493;51.884;5.188;2022-07-10T03:22:40;13.40;99.90
18729;DHT22;9493;51.884;5.188;2022-07-10T03:25:07;13.40;99.90
18729;DHT22;9493;51.884;5.188;2022-07-10T03:27:34;13.50;99.90
18729;DHT22;9493;51.884;5.188;2022-07-10T03:30:01;13.50;99.90
18729;DHT22;9493;51.884;5.188;2022-07-10T03:32:28;13.60;99.90
18729;DHT22;9493;51.884;5.188;2022-07-10T03:34:55;13.60;99.90
18729;DHT22;9493;51.884;5.188;2022-07-10T03:37:23;13.60;99.90
18729;DHT22;9493;51.884;5.188;2022-07-10T03:39:50;13.60;99.90
18729;DHT22;9493;51.884;5.188;2022-07-10T03:42:17;13.70;99.90
18729;DHT22;9493;51.884;5.188;2022-07-10T03:44:43;13.70;99.90
18729;DHT22;9493;51.884;5.188;2022-07-10T03:47:10;13.80;99.90
18729;DHT22;9493;51.884;5.188;2022-07-10T03:49:37;13.80;99.90
18729;DHT22;9493;51.884;5.188;2022-07-10T03:52:05;13.90;99.90
18729;DHT22;9493;51.884;5.188;2022-07-10T03:54:34;13.90;99.90
18729;DHT22;9493;51.884;5.188;2022-07-10T03:57:01;13.90;99.90
18729;DHT22;9493;51.884;5.188;2022-07-10T03:59:45;13.90;99.90
18729;DHT22;9493;51.884;5.188;2022-07-10T04:02:12;14.00;99.90
18729;DHT22;9493;51.884;5.188;2022-07-10T04:04:39;13.90;99.90
18729;DHT22;9493;51.884;5.188;2022-07-10T04:07:06;14.00;99.90
18729;DHT22;9493;51.884;5.188;2022-07-10T04:09:34;14.00;99.90
18729;DHT22;9493;51.884;5.188;2022-07-10T04:12:01;14.10;99.90
18729;DHT22;9493;51.884;5.188;2022-07-10T04:14:27;14.10;99.90
18729;DHT22;9493;51.884;5.188;2022-07-10T04:16:54;14.10;99.90
18729;DHT22;9493;51.884;5.188;2022-07-10T04:19:21;14.10;99.90
18729;DHT22;9493;51.884;5.188;2022-07-10T04:21:48;14.10;99.90
18729;DHT22;9493;51.884;5.188;2022-07-10T04:24:15;14.20;99.90
18729;DHT22;9493;51.884;5.188;2022-07-10T04:26:44;14.20;99.90
18729;DHT22;9493;51.884;5.188;2022-07-10T04:29:10;14.20;99.90
18729;DHT22;9493;51.884;5.188;2022-07-10T04:31:37;14.30;99.90
18729;DHT22;9493;51.884;5.188;2022-07-10T04:34:04;14.40;99.90
18729;DHT22;9493;51.884;5.188;2022-07-10T04:36:31;14.40;99.90
18729;DHT22;9493;51.884;5.188;2022-07-10T04:38:58;14.50;99.90
18729;DHT22;9493;51.884;5.188;2022-07-10T04:41:24;14.50;99.90
18729;DHT22;9493;51.884;5.188;2022-07-10T04:43:53;14.60;99.90
18729;DHT22;9493;51.884;5.188;2022-07-10T04:46:19;14.60;99.90
18729;DHT22;9493;51.884;5.188;2022-07-10T04:48:46;14.70;99.90
18729;DHT22;9493;51.884;5.188;2022-07-10T04:51:13;14.70;99.90
18729;DHT22;9493;51.884;5.188;2022-07-10T04:53:40;14.70;99.90
18729;DHT22;9493;51.884;5.188;2022-07-10T04:56:07;14.80;99.90
18729;DHT22;9493;51.884;5.188;2022-07-10T04:58:34;14.90;99.90
18729;DHT22;9493;51.884;5.188;2022-07-10T05:01:02;15.10;99.90
18729;DHT22;9493;51.884;5.188;2022-07-10T05:03:29;15.20;99.90
18729;DHT22;9493;51.884;5.188;2022-07-10T05:05:56;15.30;99.90
18729;DHT22;9493;51.884;5.188;2022-07-10T05:08:23;15.30;99.90
18729;DHT22;9493;51.884;5.188;2022-07-10T05:10:50;15.40;99.90
18729;DHT22;9493;51.884;5.188;2022-07-10T05:13:16;15.30;99.90
18729;DHT22;9493;51.884;5.188;2022-07-10T05:15:45;15.30;99.90
18729;DHT22;9493;51.884;5.188;2022-07-10T05:18:14;15.40;99.90
18729;DHT22;9493;51.884;5.188;2022-07-10T05:20:41;15.60;99.90
18729;DHT22;9493;51.884;5.188;2022-07-10T05:23:09;15.50;99.90
18729;DHT22;9493;51.884;5.188;2022-07-10T05:25:37;15.90;99.90
18729;DHT22;9493;51.884;5.188;2022-07-10T05:28:04;15.50;99.90
18729;DHT22;9493;51.884;5.188;2022-07-10T05:30:31;15.50;99.90
18729;DHT22;9493;51.884;5.188;2022-07-10T05:32:58;15.40;99.90
18729;DHT22;9493;51.884;5.188;2022-07-10T05:35:26;15.50;99.90
18729;DHT22;9493;51.884;5.188;2022-07-10T05:37:53;15.60;99.90
18729;DHT22;9493;51.884;5.188;2022-07-10T05:40:20;15.60;99.90
18729;DHT22;9493;51.884;5.188;2022-07-10T05:42:47;15.80;99.90
18729;DHT22;9493;51.884;5.188;2022-07-10T05:45:14;15.60;99.90
18729;DHT22;9493;51.884;5.188;2022-07-10T05:47:41;15.60;99.90
18729;DHT22;9493;51.884;5.188;2022-07-10T05:50:08;15.60;99.90
18729;DHT22;9493;51.884;5.188;2022-07-10T05:52:37;15.60;99.90
18729;DHT22;9493;51.884;5.188;2022-07-10T05:55:05;15.70;99.90
18729;DHT22;9493;51.884;5.188;2022-07-10T05:57:33;15.70;99.90
18729;DHT22;9493;51.884;5.188;2022-07-10T06:00:00;15.80;99.90
18729;DHT22;9493;51.884;5.188;2022-07-10T06:02:29;15.80;99.90
18729;DHT22;9493;51.884;5.188;2022-07-10T06:04:55;15.90;99.90
18729;DHT22;9493;51.884;5.188;2022-07-10T06:07:22;15.90;99.90
18729;DHT22;9493;51.884;5.188;2022-07-10T06:09:51;15.90;99.90
18729;DHT22;9493;51.884;5.188;2022-07-10T06:12:17;16.00;99.90
18729;DHT22;9493;51.884;5.188;2022-07-10T06:14:44;16.20;99.90
18729;DHT22;9493;51.884;5.188;2022-07-10T06:17:11;16.20;99.90
18729;DHT22;9493;51.884;5.188;2022-07-10T06:19:38;16.40;99.90
18729;DHT22;9493;51.884;5.188;2022-07-10T06:22:05;16.40;99.90
18729;DHT22;9493;51.884;5.188;2022-07-10T06:24:51;16.30;99.90
18729;DHT22;9493;51.884;5.188;2022-07-10T06:27:17;16.40;99.90
18729;DHT22;9493;51.884;5.188;2022-07-10T06:29:44;16.40;99.90
18729;DHT22;9493;51.884;5.188;2022-07-10T06:32:11;16.50;99.90
18729;DHT22;9493;51.884;5.188;2022-07-10T06:34:38;16.50;99.90
18729;DHT22;9493;51.884;5.188;2022-07-10T06:37:05;16.50;99.90
18729;DHT22;9493;51.884;5.188;2022-07-10T06:39:33;16.60;99.90
18729;DHT22;9493;51.884;5.188;2022-07-10T06:42:02;16.80;99.90
18729;DHT22;9493;51.884;5.188;2022-07-10T06:44:29;16.80;99.90
18729;DHT22;9493;51.884;5.188;2022-07-10T06:46:56;16.90;99.90
18729;DHT22;9493;51.884;5.188;2022-07-10T06:49:41;17.30;99.90
18729;DHT22;9493;51.884;5.188;2022-07-10T06:52:08;16.90;99.90
18729;DHT22;9493;51.884;5.188;2022-07-10T06:54:35;17.00;99.90
18729;DHT22;9493;51.884;5.188;2022-07-10T06:57:04;17.10;99.90
18729;DHT22;9493;51.884;5.188;2022-07-10T06:59:31;17.20;99.90
18729;DHT22;9493;51.884;5.188;2022-07-10T07:01:58;17.30;99.90
18729;DHT22;9493;51.884;5.188;2022-07-10T07:04:25;17.50;99.90
18729;DHT22;9493;51.884;5.188;2022-07-10T07:06:52;17.30;99.90
18729;DHT22;9493;51.884;5.188;2022-07-10T07:09:18;17.40;99.90
18729;DHT22;9493;51.884;5.188;2022-07-10T07:11:45;17.50;99.90
18729;DHT22;9493;51.884;5.188;2022-07-10T07:14:14;17.30;99.90
18729;DHT22;9493;51.884;5.188;2022-07-10T07:16:41;17.40;99.90
18729;DHT22;9493;51.884;5.188;2022-07-10T07:19:10;17.40;99.90
18729;DHT22;9493;51.884;5.188;2022-07-10T07:21:43;17.60;99.90
18729;DHT22;9493;51.884;5.188;2022-07-10T07:24:27;17.60;99.90
18729;DHT22;9493;51.884;5.188;2022-07-10T07:26:54;17.70;99.90
18729;DHT22;9493;51.884;5.188;2022-07-10T07:29:22;17.60;99.90
18729;DHT22;9493;51.884;5.188;2022-07-10T07:31:49;17.50;99.90
18729;DHT22;9493;51.884;5.188;2022-07-10T07:34:16;17.40;99.90
18729;DHT22;9493;51.884;5.188;2022-07-10T07:36:43;17.40;99.90
18729;DHT22;9493;51.884;5.188;2022-07-10T07:39:10;17.60;99.90
18729;DHT22;9493;51.884;5.188;2022-07-10T07:41:37;17.70;99.90
18729;DHT22;9493;51.884;5.188;2022-07-10T07:44:04;17.90;99.90
18729;DHT22;9493;51.884;5.188;2022-07-10T07:46:32;17.90;99.90
18729;DHT22;9493;51.884;5.188;2022-07-10T07:48:59;18.00;99.90
18729;DHT22;9493;51.884;5.188;2022-07-10T07:51:26;18.10;99.90
18729;DHT22;9493;51.884;5.188;2022-07-10T07:53:53;18.30;99.90
18729;DHT22;9493;51.884;5.188;2022-07-10T07:56:20;18.50;99.90
18729;DHT22;9493;51.884;5.188;2022-07-10T07:58:46;18.60;99.90
18729;DHT22;9493;51.884;5.188;2022-07-10T08:01:13;18.40;99.90
18729;DHT22;9493;51.884;5.188;2022-07-10T08:03:41;18.50;99.90
18729;DHT22;9493;51.884;5.188;2022-07-10T08:06:08;18.50;99.90
18729;DHT22;9493;51.884;5.188;2022-07-10T08:08:35;18.30;99.90
18729;DHT22;9493;51.884;5.188;2022-07-10T08:11:02;18.50;99.90
18729;DHT22;9493;51.884;5.188;2022-07-10T08:13:29;18.30;99.90
18729;DHT22;9493;51.884;5.188;2022-07-10T08:15:58;18.20;99.90
18729;DHT22;9493;51.884;5.188;2022-07-10T08:18:25;18.50;99.90
18729;DHT22;9493;51.884;5.188;2022-07-10T08:20:53;18.80;99.90
18729;DHT22;9493;51.884;5.188;2022-07-10T08:23:20;18.70;99.90
18729;DHT22;9493;51.884;5.188;2022-07-10T08:25:47;18.40;99.90
18729;DHT22;9493;51.884;5.188;2022-07-10T08:28:14;18.30;99.90
18729;DHT22;9493;51.884;5.188;2022-07-10T08:30:40;18.20;99.90
18729;DHT22;9493;51.884;5.188;2022-07-10T08:33:08;18.20;99.90
18729;DHT22;9493;51.884;5.188;2022-07-10T08:35:35;18.50;99.90
18729;DHT22;9493;51.884;5.188;2022-07-10T08:38:03;18.70;99.90
18729;DHT22;9493;51.884;5.188;2022-07-10T08:40:35;18.60;99.90
18729;DHT22;9493;51.884;5.188;2022-07-10T08:43:02;18.60;99.90
18729;DHT22;9493;51.884;5.188;2022-07-10T08:45:31;18.70;99.90
18729;DHT22;9493;51.884;5.188;2022-07-10T08:48:01;19.00;99.90
18729;DHT22;9493;51.884;5.188;2022-07-10T08:50:32;19.60;99.90
18729;DHT22;9493;51.884;5.188;2022-07-10T08:53:01;19.60;99.90
18729;DHT22;9493;51.884;5.188;2022-07-10T08:55:35;19.40;99.90
18729;DHT22;9493;51.884;5.188;2022-07-10T08:58:03;19.20;99.90
18729;DHT22;9493;51.884;5.188;2022-07-10T09:00:31;19.10;99.90
18729;DHT22;9493;51.884;5.188;2022-07-10T09:02:58;19.20;99.90
18729;DHT22;9493;51.884;5.188;2022-07-10T09:05:25;19.50;99.90
18729;DHT22;9493;51.884;5.188;2022-07-10T09:07:52;20.00;99.90
18729;DHT22;9493;51.884;5.188;2022-07-10T09:10:21;20.70;99.90
18729;DHT22;9493;51.884;5.188;2022-07-10T09:12:53;20.50;99.90
18729;DHT22;9493;51.884;5.188;2022-07-10T09:15:21;20.30;99.90
18729;DHT22;9493;51.884;5.188;2022-07-10T09:17:55;20.00;99.90
18729;DHT22;9493;51.884;5.188;2022-07-10T09:20:30;19.90;99.90
18729;DHT22;9493;51.884;5.188;2022-07-10T09:22:58;20.30;99.90
18729;DHT22;9493;51.884;5.188;2022-07-10T09:25:32;20.30;99.90
18729;DHT22;9493;51.884;5.188;2022-07-10T09:28:01;20.10;99.90
18729;DHT22;9493;51.884;5.188;2022-07-10T09:30:32;20.40;99.90
18729;DHT22;9493;51.884;5.188;2022-07-10T09:33:17;20.10;99.90
18729;DHT22;9493;51.884;5.188;2022-07-10T09:35:58;20.10;99.90
18729;DHT22;9493;51.884;5.188;2022-07-10T09:38:51;20.00;99.90
18729;DHT22;9493;51.884;5.188;2022-07-10T09:41:27;20.20;99.90
18729;DHT22;9493;51.884;5.188;2022-07-10T09:43:57;20.70;99.90
18729;DHT22;9493;51.884;5.188;2022-07-10T09:46:28;20.80;99.90
18729;DHT22;9493;51.884;5.188;2022-07-10T09:49:05;20.80;99.90
18729;DHT22;9493;51.884;5.188;2022-07-10T09:51:34;20.90;99.90
18729;DHT22;9493;51.884;5.188;2022-07-10T09:54:02;20.70;99.90
18729;DHT22;9493;51.884;5.188;2022-07-10T09:56:50;20.80;99.90
18729;DHT22;9493;51.884;5.188;2022-07-10T09:59:20;20.90;99.90
18729;DHT22;9493;51.884;5.188;2022-07-10T10:01:48;20.70;99.90
18729;DHT22;9493;51.884;5.188;2022-07-10T10:04:17;21.20;99.90
18729;DHT22;9493;51.884;5.188;2022-07-10T10:06:46;21.10;99.90
18729;DHT22;9493;51.884;5.188;2022-07-10T10:09:19;21.30;99.90
18729;DHT22;9493;51.884;5.188;2022-07-10T10:11:52;21.50;99.90
18729;DHT22;9493;51.884;5.188;2022-07-10T10:14:23;21.00;99.90
18729;DHT22;9493;51.884;5.188;2022-07-10T10:16:54;20.60;99.90
18729;DHT22;9493;51.884;5.188;2022-07-10T10:19:23;20.70;99.90
18729;DHT22;9493;51.884;5.188;2022-07-10T10:22:08;20.80;99.90
18729;DHT22;9493;51.884;5.188;2022-07-10T10:24:36;21.10;99.90
18729;DHT22;9493;51.884;5.188;2022-07-10T10:27:05;21.00;99.90
18729;DHT22;9493;51.884;5.188;2022-07-10T10:29:35;20.70;99.90
18729;DHT22;9493;51.884;5.188;2022-07-10T10:32:03;20.70;99.90
18729;DHT22;9493;51.884;5.188;2022-07-10T10:34:40;21.00;99.90
18729;DHT22;9493;51.884;5.188;2022-07-10T10:37:32;21.00;99.90
18729;DHT22;9493;51.884;5.188;2022-07-10T10:40:00;21.10;99.90
18729;DHT22;9493;51.884;5.188;2022-07-10T10:42:34;21.20;99.90
18729;DHT22;9493;51.884;5.188;2022-07-10T10:48:08;21.30;99.90
18729;DHT22;9493;51.884;5.188;2022-07-10T10:50:39;21.50;99.90
18729;DHT22;9493;51.884;5.188;2022-07-10T10:53:17;21.50;99.90
18729;DHT22;9493;51.884;5.188;2022-07-10T10:56:22;21.80;99.90
18729;DHT22;9493;51.884;5.188;2022-07-10T10:58:50;21.70;99.90
18729;DHT22;9493;51.884;5.188;2022-07-10T11:01:28;21.80;99.90
18729;DHT22;9493;51.884;5.188;2022-07-10T11:04:27;21.50;99.90
18729;DHT22;9493;51.884;5.188;2022-07-10T11:06:53;21.20;99.90
18729;DHT22;9493;51.884;5.188;2022-07-10T11:09:24;21.40;99.90
18729;DHT22;9493;51.884;5.188;2022-07-10T11:11:58;21.70;99.90
18729;DHT22;9493;51.884;5.188;2022-07-10T11:14:27;21.80;99.90
18729;DHT22;9493;51.884;5.188;2022-07-10T11:16:58;21.40;99.90
18729;DHT22;9493;51.884;5.188;2022-07-10T11:19:33;21.80;99.90
18729;DHT22;9493;51.884;5.188;2022-07-10T11:22:30;21.60;99.90
18729;DHT22;9493;51.884;5.188;2022-07-10T11:25:08;22.00;99.90
18729;DHT22;9493;51.884;5.188;2022-07-10T11:27:57;22.20;99.90
18729;DHT22;9493;51.884;5.188;2022-07-10T11:30:27;21.80;99.90
18729;DHT22;9493;51.884;5.188;2022-07-10T11:32:54;21.90;99.90
18729;DHT22;9493;51.884;5.188;2022-07-10T11:35:22;22.00;99.90
18729;DHT22;9493;51.884;5.188;2022-07-10T11:37:50;22.10;99.90
18729;DHT22;9493;51.884;5.188;2022-07-10T11:40:18;22.20;99.90
18729;DHT22;9493;51.884;5.188;2022-07-10T11:42:53;22.50;99.90
18729;DHT22;9493;51.884;5.188;2022-07-10T11:45:27;23.20;99.90
18729;DHT22;9493;51.884;5.188;2022-07-10T11:47:55;23.60;99.90
18729;DHT22;9493;51.884;5.188;2022-07-10T11:50:23;22.90;99.90
18729;DHT22;9493;51.884;5.188;2022-07-10T11:52:52;22.50;99.90
18729;DHT22;9493;51.884;5.188;2022-07-10T11:55:21;22.50;99.90
18729;DHT22;9493;51.884;5.188;2022-07-10T11:57:48;22.40;99.90
18729;DHT22;9493;51.884;5.188;2022-07-10T12:00:21;22.40;99.90
18729;DHT22;9493;51.884;5.188;2022-07-10T12:02:49;22.60;99.90
18729;DHT22;9493;51.884;5.188;2022-07-10T12:05:31;22.70;99.90
18729;DHT22;9493;51.884;5.188;2022-07-10T12:07:59;22.60;99.90
18729;DHT22;9493;51.884;5.188;2022-07-10T12:10:37;22.80;99.90
18729;DHT22;9493;51.884;5.188;2022-07-10T12:13:08;22.80;99.90
18729;DHT22;9493;51.884;5.188;2022-07-10T12:15:37;22.90;99.90
18729;DHT22;9493;51.884;5.188;2022-07-10T12:18:05;22.80;99.90
18729;DHT22;9493;51.884;5.188;2022-07-10T12:20:34;22.80;99.90
18729;DHT22;9493;51.884;5.188;2022-07-10T12:23:03;22.40;99.90
18729;DHT22;9493;51.884;5.188;2022-07-10T12:25:30;22.30;99.90
18729;DHT22;9493;51.884;5.188;2022-07-10T12:27:57;22.50;99.90
18729;DHT22;9493;51.884;5.188;2022-07-10T12:30:36;22.90;99.90
18729;DHT22;9493;51.884;5.188;2022-07-10T12:33:10;23.60;99.90
18729;DHT22;9493;51.884;5.188;2022-07-10T12:35:50;23.20;99.90
18729;DHT22;9493;51.884;5.188;2022-07-10T12:38:18;23.70;99.90
18729;DHT22;9493;51.884;5.188;2022-07-10T12:40:46;23.70;99.90
18729;DHT22;9493;51.884;5.188;2022-07-10T12:43:23;23.50;99.90
18729;DHT22;9493;51.884;5.188;2022-07-10T12:46:08;23.50;99.90
18729;DHT22;9493;51.884;5.188;2022-07-10T12:48:35;23.00;99.90
18729;DHT22;9493;51.884;5.188;2022-07-10T12:51:21;23.00;99.90
18729;DHT22;9493;51.884;5.188;2022-07-10T12:53:49;23.70;99.90
18729;DHT22;9493;51.884;5.188;2022-07-10T12:56:30;23.60;99.90
18729;DHT22;9493;51.884;5.188;2022-07-10T12:58:57;23.80;99.90
18729;DHT22;9493;51.884;5.188;2022-07-10T13:01:26;23.80;99.90
18729;DHT22;9493;51.884;5.188;2022-07-10T13:04:00;23.50;99.90
18729;DHT22;9493;51.884;5.188;2022-07-10T13:06:31;23.70;99.90
18729;DHT22;9493;51.884;5.188;2022-07-10T13:08:59;23.70;99.90
18729;DHT22;9493;51.884;5.188;2022-07-10T13:11:27;24.20;99.90
18729;DHT22;9493;51.884;5.188;2022-07-10T13:13:54;24.30;99.90
18729;DHT22;9493;51.884;5.188;2022-07-10T13:16:35;24.00;99.90
18729;DHT22;9493;51.884;5.188;2022-07-10T13:19:04;24.20;99.90
18729;DHT22;9493;51.884;5.188;2022-07-10T13:25:01;23.90;99.90
18729;DHT22;9493;51.884;5.188;2022-07-10T13:27:46;23.30;99.90
18729;DHT22;9493;51.884;5.188;2022-07-10T13:30:29;23.50;99.90
18729;DHT22;9493;51.884;5.188;2022-07-10T13:33:13;23.90;99.90
18729;DHT22;9493;51.884;5.188;2022-07-10T13:35:55;24.20;99.90
18729;DHT22;9493;51.884;5.188;2022-07-10T13:38:27;23.80;99.90
18729;DHT22;9493;51.884;5.188;2022-07-10T13:41:08;23.40;99.90
18729;DHT22;9493;51.884;5.188;2022-07-10T13:44:01;23.10;99.90
18729;DHT22;9493;51.884;5.188;2022-07-10T13:47:03;23.40;99.90
18729;DHT22;9493;51.884;5.188;2022-07-10T13:52:50;23.40;99.90
18729;DHT22;9493;51.884;5.188;2022-07-10T13:55:34;23.40;99.90
18729;DHT22;9493;51.884;5.188;2022-07-10T13:58:17;23.20;99.90
18729;DHT22;9493;51.884;5.188;2022-07-10T14:01:02;23.00;99.90
18729;DHT22;9493;51.884;5.188;2022-07-10T14:03:38;23.30;99.90
18729;DHT22;9493;51.884;5.188;2022-07-10T14:06:09;23.30;99.90
18729;DHT22;9493;51.884;5.188;2022-07-10T14:08:43;23.50;99.90
18729;DHT22;9493;51.884;5.188;2022-07-10T14:11:26;23.70;99.90
18729;DHT22;9493;51.884;5.188;2022-07-10T14:20:26;23.70;99.90
18729;DHT22;9493;51.884;5.188;2022-07-10T14:23:10;23.40;99.90
18729;DHT22;9493;51.884;5.188;2022-07-10T14:25:41;23.00;99.90
18729;DHT22;9493;51.884;5.188;2022-07-10T14:28:13;23.00;99.90
18729;DHT22;9493;51.884;5.188;2022-07-10T14:30:56;23.50;99.90
18729;DHT22;9493;51.884;5.188;2022-07-10T14:33:30;23.70;99.90
18729;DHT22;9493;51.884;5.188;2022-07-10T14:36:00;23.70;99.90
18729;DHT22;9493;51.884;5.188;2022-07-10T14:38:32;23.60;99.90
18729;DHT22;9493;51.884;5.188;2022-07-10T14:41:19;23.20;99.90
18729;DHT22;9493;51.884;5.188;2022-07-10T14:44:03;23.30;99.90
18729;DHT22;9493;51.884;5.188;2022-07-10T14:46:33;22.90;99.90
18729;DHT22;9493;51.884;5.188;2022-07-10T14:49:14;23.30;99.90
18729;DHT22;9493;51.884;5.188;2022-07-10T14:52:12;23.40;99.90
18729;DHT22;9493;51.884;5.188;2022-07-10T14:54:47;23.40;99.90
18729;DHT22;9493;51.884;5.188;2022-07-10T14:57:16;23.50;99.90
18729;DHT22;9493;51.884;5.188;2022-07-10T14:59:45;23.60;99.90
18729;DHT22;9493;51.884;5.188;2022-07-10T15:02:17;23.90;99.90
18729;DHT22;9493;51.884;5.188;2022-07-10T15:05:00;24.00;99.90
18729;DHT22;9493;51.884;5.188;2022-07-10T15:07:33;23.80;99.90
18729;DHT22;9493;51.884;5.188;2022-07-10T15:10:15;23.90;99.90
18729;DHT22;9493;51.884;5.188;2022-07-10T15:12:52;23.60;99.90
18729;DHT22;9493;51.884;5.188;2022-07-10T15:15:30;23.20;99.90
18729;DHT22;9493;51.884;5.188;2022-07-10T15:17:59;23.00;99.90
18729;DHT22;9493;51.884;5.188;2022-07-10T15:20:41;23.00;99.90
18729;DHT22;9493;51.884;5.188;2022-07-10T15:26:28;23.40;99.90
18729;DHT22;9493;51.884;5.188;2022-07-10T15:29:12;23.30;99.90
18729;DHT22;9493;51.884;5.188;2022-07-10T15:31:40;23.60;99.90
18729;DHT22;9493;51.884;5.188;2022-07-10T15:34:10;23.50;99.90
18729;DHT22;9493;51.884;5.188;2022-07-10T15:36:53;23.50;99.90
18729;DHT22;9493;51.884;5.188;2022-07-10T15:39:34;23.70;99.90
18729;DHT22;9493;51.884;5.188;2022-07-10T15:42:13;23.20;99.90
18729;DHT22;9493;51.884;5.188;2022-07-10T15:44:41;23.20;99.90
18729;DHT22;9493;51.884;5.188;2022-07-10T15:47:22;23.30;99.90
18729;DHT22;9493;51.884;5.188;2022-07-10T15:49:50;23.30;99.90
18729;DHT22;9493;51.884;5.188;2022-07-10T15:52:25;23.20;99.90
18729;DHT22;9493;51.884;5.188;2022-07-10T15:55:08;23.00;99.90
18729;DHT22;9493;51.884;5.188;2022-07-10T15:57:46;23.00;99.90
18729;DHT22;9493;51.884;5.188;2022-07-10T16:00:27;22.80;99.90
18729;DHT22;9493;51.884;5.188;2022-07-10T16:03:20;22.80;99.90
18729;DHT22;9493;51.884;5.188;2022-07-10T16:06:14;23.00;99.90
18729;DHT22;9493;51.884;5.188;2022-07-10T16:08:55;23.20;99.90
18729;DHT22;9493;51.884;5.188;2022-07-10T16:11:37;23.60;99.90
18729;DHT22;9493;51.884;5.188;2022-07-10T16:14:10;23.40;99.90
18729;DHT22;9493;51.884;5.188;2022-07-10T16:16:44;23.10;99.90
18729;DHT22;9493;51.884;5.188;2022-07-10T16:19:28;23.10;99.90
18729;DHT22;9493;51.884;5.188;2022-07-10T16:22:32;23.10;99.90
18729;DHT22;9493;51.884;5.188;2022-07-10T16:25:14;23.30;99.90
18729;DHT22;9493;51.884;5.188;2022-07-10T16:28:03;23.40;99.90